sensor_id;sensor_type;location;lat;lon;timestamp;pressure;altitude;pressure_sealevel;temperature;humidity
76753;BME280;65687;51.308;16.916;2024-02-23T00:00:59;97319.25;;;7.87;100.00
76753;BME280;65687;51.308;16.916;2024-02-23T00:06:21;97320.00;;;7.90;100.00
76753;BME280;65687;51.308;16.916;2024-02-23T00:11:25;97321.71;;;7.91;100.00
76753;BME280;65687;51.308;16.916;2024-02-23T00:16:26;97324.28;;;7.92;100.00
76753;BME280;65687;51.308;16.916;2024-02-23T00:21:28;97333.55;;;7.92;100.00
76753;BME280;65687;51.308;16.916;2024-02-23T00:26:30;97336.95;;;7.93;100.00
76753;BME280;65687;51.308;16.916;2024-02-23T00:31:32;97336.58;;;7.93;100.00
76753;BME280;65687;51.308;16.916;2024-02-23T00:36:33;97342.62;;;7.93;100.00
76753;BME280;65687;51.308;16.916;2024-02-23T00:41:35;97345.59;;;7.95;100.00
76753;BME280;65687;51.308;16.916;2024-02-23T00:46:37;97341.52;;;7.99;100.00
76753;BME280;65687;51.308;16.916;2024-02-23T00:51:40;97332.16;;;8.01;100.00
76753;BME280;65687;51.308;16.916;2024-02-23T00:56:41;97327.30;;;8.01;100.00
76753;BME280;65687;51.308;16.916;2024-02-23T01:01:43;97328.79;;;8.00;100.00
76753;BME280;65687;51.308;16.916;2024-02-23T01:06:45;97332.83;;;8.05;100.00
76753;BME280;65687;51.308;16.916;2024-02-23T01:11:47;97328.66;;;8.12;100.00
76753;BME280;65687;51.308;16.916;2024-02-23T01:16:49;97325.55;;;8.19;100.00
76753;BME280;65687;51.308;16.916;2024-02-23T01:21:51;97311.56;;;8.28;100.00
76753;BME280;65687;51.308;16.916;2024-02-23T01:27:00;97298.52;;;8.34;100.00
76753;BME280;65687;51.308;16.916;2024-02-23T01:32:02;97296.64;;;8.44;100.00
76753;BME280;65687;51.308;16.916;2024-02-23T01:37:04;97305.95;;;8.56;100.00
76753;BME280;65687;51.308;16.916;2024-02-23T01:42:06;97300.36;;;8.65;99.97
76753;BME280;65687;51.308;16.916;2024-02-23T01:47:07;97281.60;;;8.68;99.75
76753;BME280;65687;51.308;16.916;2024-02-23T01:52:09;97275.42;;;8.70;99.36
76753;BME280;65687;51.308;16.916;2024-02-23T01:57:11;97290.01;;;8.78;98.97
76753;BME280;65687;51.308;16.916;2024-02-23T02:02:13;97306.38;;;8.80;98.92
76753;BME280;65687;51.308;16.916;2024-02-23T02:07:14;97304.73;;;8.81;98.41
76753;BME280;65687;51.308;16.916;2024-02-23T02:12:28;97309.00;;;8.82;98.31
76753;BME280;65687;51.308;16.916;2024-02-23T02:17:30;97318.91;;;8.83;97.99
76753;BME280;65687;51.308;16.916;2024-02-23T02:22:33;97325.09;;;8.81;98.09
76753;BME280;65687;51.308;16.916;2024-02-23T02:27:35;97334.25;;;8.78;98.07
76753;BME280;65687;51.308;16.916;2024-02-23T02:32:36;97338.95;;;8.72;98.07
76753;BME280;65687;51.308;16.916;2024-02-23T02:37:38;97340.46;;;8.72;98.02
76753;BME280;65687;51.308;16.916;2024-02-23T02:42:40;97333.67;;;8.65;98.14
76753;BME280;65687;51.308;16.916;2024-02-23T02:47:42;97334.36;;;8.65;98.18
76753;BME280;65687;51.308;16.916;2024-02-23T02:52:44;97335.23;;;8.61;98.32
76753;BME280;65687;51.308;16.916;2024-02-23T02:57:45;97339.71;;;8.55;98.63
76753;BME280;65687;51.308;16.916;2024-02-23T03:02:47;97341.35;;;8.53;98.67
76753;BME280;65687;51.308;16.916;2024-02-23T03:07:49;97331.39;;;8.52;98.33
76753;BME280;65687;51.308;16.916;2024-02-23T03:12:50;97341.01;;;8.53;98.59
76753;BME280;65687;51.308;16.916;2024-02-23T03:17:52;97345.86;;;8.53;98.32
76753;BME280;65687;51.308;16.916;2024-02-23T03:22:56;97364.14;;;8.56;98.18
76753;BME280;65687;51.308;16.916;2024-02-23T03:27:57;97380.11;;;8.60;97.55
76753;BME280;65687;51.308;16.916;2024-02-23T03:32:59;97389.92;;;8.62;97.56
76753;BME280;65687;51.308;16.916;2024-02-23T03:38:00;97396.73;;;8.64;97.27
76753;BME280;65687;51.308;16.916;2024-02-23T03:43:03;97401.55;;;8.63;97.32
76753;BME280;65687;51.308;16.916;2024-02-23T03:48:05;97407.33;;;8.54;97.60
76753;BME280;65687;51.308;16.916;2024-02-23T03:53:07;97417.58;;;8.54;97.35
76753;BME280;65687;51.308;16.916;2024-02-23T03:58:08;97427.36;;;8.59;96.77
76753;BME280;65687;51.308;16.916;2024-02-23T04:03:10;97437.23;;;8.63;96.56
76753;BME280;65687;51.308;16.916;2024-02-23T04:08:12;97444.51;;;8.64;96.08
76753;BME280;65687;51.308;16.916;2024-02-23T04:13:13;97449.48;;;8.66;95.67
76753;BME280;65687;51.308;16.916;2024-02-23T04:18:16;97454.94;;;8.69;95.35
76753;BME280;65687;51.308;16.916;2024-02-23T04:23:17;97456.30;;;8.69;95.29
76753;BME280;65687;51.308;16.916;2024-02-23T04:28:19;97462.14;;;8.68;95.27
76753;BME280;65687;51.308;16.916;2024-02-23T04:33:20;97470.92;;;8.69;94.87
76753;BME280;65687;51.308;16.916;2024-02-23T04:38:22;97471.23;;;8.68;94.67
76753;BME280;65687;51.308;16.916;2024-02-23T04:43:24;97470.35;;;8.67;94.99
76753;BME280;65687;51.308;16.916;2024-02-23T04:48:26;97480.19;;;8.64;94.87
76753;BME280;65687;51.308;16.916;2024-02-23T04:53:28;97492.13;;;8.69;94.39
76753;BME280;65687;51.308;16.916;2024-02-23T04:58:30;97498.84;;;8.73;94.33
76753;BME280;65687;51.308;16.916;2024-02-23T05:03:31;97512.27;;;8.72;94.24
76753;BME280;65687;51.308;16.916;2024-02-23T05:08:33;97522.83;;;8.71;94.44
76753;BME280;65687;51.308;16.916;2024-02-23T05:13:35;97533.29;;;8.67;94.82
76753;BME280;65687;51.308;16.916;2024-02-23T05:18:37;97538.35;;;8.67;94.50
76753;BME280;65687;51.308;16.916;2024-02-23T05:23:39;97552.09;;;8.70;94.21
76753;BME280;65687;51.308;16.916;2024-02-23T05:28:40;97571.04;;;8.73;94.06
76753;BME280;65687;51.308;16.916;2024-02-23T05:33:42;97581.34;;;8.73;93.89
76753;BME280;65687;51.308;16.916;2024-02-23T05:38:44;97588.56;;;8.73;93.84
76753;BME280;65687;51.308;16.916;2024-02-23T05:43:47;97597.53;;;8.75;93.51
76753;BME280;65687;51.308;16.916;2024-02-23T05:48:49;97602.10;;;8.76;93.35
76753;BME280;65687;51.308;16.916;2024-02-23T05:53:50;97607.82;;;8.76;93.16
76753;BME280;65687;51.308;16.916;2024-02-23T05:58:52;97621.57;;;8.74;93.41
76753;BME280;65687;51.308;16.916;2024-02-23T06:03:54;97631.91;;;8.72;93.35
76753;BME280;65687;51.308;16.916;2024-02-23T06:08:56;97649.45;;;8.68;93.47
76753;BME280;65687;51.308;16.916;2024-02-23T06:13:58;97658.30;;;8.66;93.48
76753;BME280;65687;51.308;16.916;2024-02-23T06:18:59;97668.01;;;8.61;93.75
76753;BME280;65687;51.308;16.916;2024-02-23T06:24:02;97676.52;;;8.59;93.68
76753;BME280;65687;51.308;16.916;2024-02-23T06:29:04;97676.81;;;8.62;93.25
76753;BME280;65687;51.308;16.916;2024-02-23T06:34:07;97688.38;;;8.70;92.74
76753;BME280;65687;51.308;16.916;2024-02-23T06:39:09;97694.45;;;8.74;92.67
76753;BME280;65687;51.308;16.916;2024-02-23T06:44:12;97704.92;;;8.76;92.53
76753;BME280;65687;51.308;16.916;2024-02-23T06:49:14;97716.60;;;8.77;92.16
76753;BME280;65687;51.308;16.916;2024-02-23T06:54:15;97727.08;;;8.78;91.58
76753;BME280;65687;51.308;16.916;2024-02-23T06:59:18;97735.96;;;8.77;91.68
76753;BME280;65687;51.308;16.916;2024-02-23T07:04:19;97740.50;;;8.77;91.76
76753;BME280;65687;51.308;16.916;2024-02-23T07:09:21;97746.03;;;8.76;91.54
76753;BME280;65687;51.308;16.916;2024-02-23T07:14:23;97749.73;;;8.77;91.30
76753;BME280;65687;51.308;16.916;2024-02-23T07:19:25;97756.84;;;8.78;91.39
76753;BME280;65687;51.308;16.916;2024-02-23T07:24:26;97766.09;;;8.77;91.13
76753;BME280;65687;51.308;16.916;2024-02-23T07:29:28;97765.43;;;8.77;91.47
76753;BME280;65687;51.308;16.916;2024-02-23T07:34:31;97770.84;;;8.78;91.20
76753;BME280;65687;51.308;16.916;2024-02-23T07:39:32;97782.84;;;8.79;91.22
76753;BME280;65687;51.308;16.916;2024-02-23T07:44:34;97791.59;;;8.79;91.38
76753;BME280;65687;51.308;16.916;2024-02-23T07:49:36;97800.88;;;8.80;91.23
76753;BME280;65687;51.308;16.916;2024-02-23T07:54:38;97814.77;;;8.82;91.08
76753;BME280;65687;51.308;16.916;2024-02-23T07:59:39;97825.50;;;8.85;90.40
76753;BME280;65687;51.308;16.916;2024-02-23T08:04:41;97837.91;;;8.88;90.36
76753;BME280;65687;51.308;16.916;2024-02-23T08:09:44;97850.08;;;8.94;87.96
76753;BME280;65687;51.308;16.916;2024-02-23T08:14:46;97856.61;;;9.02;84.23
76753;BME280;65687;51.308;16.916;2024-02-23T08:19:48;97858.24;;;9.09;78.61
76753;BME280;65687;51.308;16.916;2024-02-23T08:24:51;97868.65;;;9.17;77.20
76753;BME280;65687;51.308;16.916;2024-02-23T08:29:52;97875.02;;;9.20;75.32
76753;BME280;65687;51.308;16.916;2024-02-23T08:34:54;97879.80;;;9.22;72.64
76753;BME280;65687;51.308;16.916;2024-02-23T08:40:00;97885.25;;;9.23;71.32
76753;BME280;65687;51.308;16.916;2024-02-23T08:45:02;97889.02;;;9.25;70.87
76753;BME280;65687;51.308;16.916;2024-02-23T08:50:05;97899.27;;;9.25;70.28
76753;BME280;65687;51.308;16.916;2024-02-23T08:55:07;97916.38;;;9.23;69.94
76753;BME280;65687;51.308;16.916;2024-02-23T09:00:10;97932.48;;;9.21;69.04
76753;BME280;65687;51.308;16.916;2024-02-23T09:05:11;97947.36;;;9.18;69.46
76753;BME280;65687;51.308;16.916;2024-02-23T09:10:13;97960.55;;;9.15;68.95
76753;BME280;65687;51.308;16.916;2024-02-23T09:15:15;97967.19;;;9.13;69.25
76753;BME280;65687;51.308;16.916;2024-02-23T09:20:17;97975.59;;;9.12;68.93
76753;BME280;65687;51.308;16.916;2024-02-23T09:25:19;97974.84;;;9.11;68.11
76753;BME280;65687;51.308;16.916;2024-02-23T09:30:20;97978.80;;;9.09;68.33
76753;BME280;65687;51.308;16.916;2024-02-23T09:35:22;97987.59;;;9.09;67.73
76753;BME280;65687;51.308;16.916;2024-02-23T09:40:24;97993.75;;;9.11;67.52
76753;BME280;65687;51.308;16.916;2024-02-23T09:45:26;98002.74;;;9.13;67.61
76753;BME280;65687;51.308;16.916;2024-02-23T09:50:29;98008.86;;;9.15;66.82
76753;BME280;65687;51.308;16.916;2024-02-23T09:55:31;98014.68;;;9.17;66.81
76753;BME280;65687;51.308;16.916;2024-02-23T10:00:34;98021.86;;;9.19;67.09
76753;BME280;65687;51.308;16.916;2024-02-23T10:05:38;98028.36;;;9.22;67.22
76753;BME280;65687;51.308;16.916;2024-02-23T10:10:40;98027.25;;;9.23;65.93
76753;BME280;65687;51.308;16.916;2024-02-23T10:15:43;98032.30;;;9.27;65.32
76753;BME280;65687;51.308;16.916;2024-02-23T10:20:45;98042.66;;;9.30;65.70
76753;BME280;65687;51.308;16.916;2024-02-23T10:25:47;98044.45;;;9.33;64.74
76753;BME280;65687;51.308;16.916;2024-02-23T10:30:49;98051.91;;;9.37;65.26
76753;BME280;65687;51.308;16.916;2024-02-23T10:35:55;98052.98;;;9.43;65.28
76753;BME280;65687;51.308;16.916;2024-02-23T10:41:02;98056.70;;;9.52;64.76
76753;BME280;65687;51.308;16.916;2024-02-23T10:46:06;98057.02;;;9.60;63.89
76753;BME280;65687;51.308;16.916;2024-02-23T10:51:14;98048.79;;;9.64;65.65
76753;BME280;65687;51.308;16.916;2024-02-23T10:56:16;98053.25;;;9.71;65.08
76753;BME280;65687;51.308;16.916;2024-02-23T11:01:19;98069.73;;;9.70;62.87
76753;BME280;65687;51.308;16.916;2024-02-23T11:06:27;98071.92;;;9.65;62.40
76753;BME280;65687;51.308;16.916;2024-02-23T11:11:32;98076.48;;;9.70;62.67
76753;BME280;65687;51.308;16.916;2024-02-23T11:16:38;98071.90;;;9.77;63.19
76753;BME280;65687;51.308;16.916;2024-02-23T11:21:40;98063.02;;;9.88;62.96
76753;BME280;65687;51.308;16.916;2024-02-23T11:26:42;98052.33;;;9.94;61.53
76753;BME280;65687;51.308;16.916;2024-02-23T11:31:45;98046.08;;;9.94;60.82
76753;BME280;65687;51.308;16.916;2024-02-23T11:36:50;98037.98;;;9.89;60.14
76753;BME280;65687;51.308;16.916;2024-02-23T11:41:53;98025.32;;;9.85;59.91
76753;BME280;65687;51.308;16.916;2024-02-23T11:46:55;98024.14;;;9.81;60.41
76753;BME280;65687;51.308;16.916;2024-02-23T11:51:57;98045.05;;;9.77;60.81
76753;BME280;65687;51.308;16.916;2024-02-23T11:56:59;98062.86;;;9.75;61.68
76753;BME280;65687;51.308;16.916;2024-02-23T12:02:02;98072.36;;;9.72;62.69
76753;BME280;65687;51.308;16.916;2024-02-23T12:07:03;98093.60;;;9.68;61.94
76753;BME280;65687;51.308;16.916;2024-02-23T12:12:05;98106.66;;;9.61;60.88
76753;BME280;65687;51.308;16.916;2024-02-23T12:17:08;98107.39;;;9.55;61.86
76753;BME280;65687;51.308;16.916;2024-02-23T12:22:10;98114.06;;;9.53;61.73
76753;BME280;65687;51.308;16.916;2024-02-23T12:27:17;98119.22;;;9.51;62.35
76753;BME280;65687;51.308;16.916;2024-02-23T12:32:22;98112.84;;;9.52;62.91
76753;BME280;65687;51.308;16.916;2024-02-23T12:37:24;98124.24;;;9.55;62.60
76753;BME280;65687;51.308;16.916;2024-02-23T12:42:26;98123.89;;;9.58;63.15
76753;BME280;65687;51.308;16.916;2024-02-23T12:47:28;98123.64;;;9.60;62.38
76753;BME280;65687;51.308;16.916;2024-02-23T12:52:29;98124.73;;;9.63;62.04
76753;BME280;65687;51.308;16.916;2024-02-23T12:57:31;98113.09;;;9.62;61.75
76753;BME280;65687;51.308;16.916;2024-02-23T13:02:33;98110.23;;;9.62;61.83
76753;BME280;65687;51.308;16.916;2024-02-23T13:07:35;98110.88;;;9.62;61.42
76753;BME280;65687;51.308;16.916;2024-02-23T13:12:37;98114.27;;;9.62;61.94
76753;BME280;65687;51.308;16.916;2024-02-23T13:17:38;98117.46;;;9.62;62.09
76753;BME280;65687;51.308;16.916;2024-02-23T13:22:41;98131.90;;;9.61;61.65
76753;BME280;65687;51.308;16.916;2024-02-23T13:27:42;98137.66;;;9.57;61.32
76753;BME280;65687;51.308;16.916;2024-02-23T13:32:44;98140.38;;;9.54;61.02
76753;BME280;65687;51.308;16.916;2024-02-23T13:37:46;98142.52;;;9.53;60.78
76753;BME280;65687;51.308;16.916;2024-02-23T13:42:47;98145.98;;;9.51;62.11
76753;BME280;65687;51.308;16.916;2024-02-23T13:47:57;98140.46;;;9.48;62.58
76753;BME280;65687;51.308;16.916;2024-02-23T13:53:00;98139.36;;;9.46;62.48
76753;BME280;65687;51.308;16.916;2024-02-23T13:58:02;98144.30;;;9.43;63.41
76753;BME280;65687;51.308;16.916;2024-02-23T14:03:04;98145.27;;;9.38;63.48
76753;BME280;65687;51.308;16.916;2024-02-23T14:08:06;98141.21;;;9.33;66.94
76753;BME280;65687;51.308;16.916;2024-02-23T14:13:07;98141.05;;;9.30;67.96
76753;BME280;65687;51.308;16.916;2024-02-23T14:18:09;98147.20;;;9.28;66.72
76753;BME280;65687;51.308;16.916;2024-02-23T14:23:11;98151.54;;;9.23;67.21
76753;BME280;65687;51.308;16.916;2024-02-23T14:28:12;98152.47;;;9.17;68.80
76753;BME280;65687;51.308;16.916;2024-02-23T14:33:14;98160.91;;;9.10;69.76
76753;BME280;65687;51.308;16.916;2024-02-23T14:38:16;98160.52;;;9.01;70.60
76753;BME280;65687;51.308;16.916;2024-02-23T14:43:18;98159.73;;;8.95;71.29
76753;BME280;65687;51.308;16.916;2024-02-23T14:48:20;98160.03;;;8.90;71.96
76753;BME280;65687;51.308;16.916;2024-02-23T14:53:21;98164.39;;;8.86;72.22
76753;BME280;65687;51.308;16.916;2024-02-23T14:58:23;98173.58;;;8.84;72.89
76753;BME280;65687;51.308;16.916;2024-02-23T15:03:25;98182.34;;;8.80;73.66
76753;BME280;65687;51.308;16.916;2024-02-23T15:08:27;98187.80;;;8.75;74.45
76753;BME280;65687;51.308;16.916;2024-02-23T15:13:29;98191.94;;;8.70;73.88
76753;BME280;65687;51.308;16.916;2024-02-23T15:18:30;98192.34;;;8.67;73.54
76753;BME280;65687;51.308;16.916;2024-02-23T15:23:32;98186.52;;;8.65;73.53
76753;BME280;65687;51.308;16.916;2024-02-23T15:28:34;98189.60;;;8.59;73.63
76753;BME280;65687;51.308;16.916;2024-02-23T15:33:36;98185.23;;;8.52;73.91
76753;BME280;65687;51.308;16.916;2024-02-23T15:38:40;98179.97;;;8.44;75.02
76753;BME280;65687;51.308;16.916;2024-02-23T15:43:41;98175.05;;;8.32;75.82
76753;BME280;65687;51.308;16.916;2024-02-23T15:48:43;98170.41;;;8.24;76.03
76753;BME280;65687;51.308;16.916;2024-02-23T15:53:45;98169.89;;;8.16;76.39
76753;BME280;65687;51.308;16.916;2024-02-23T15:58:46;98173.83;;;8.11;76.54
76753;BME280;65687;51.308;16.916;2024-02-23T16:03:48;98168.99;;;8.04;76.56
76753;BME280;65687;51.308;16.916;2024-02-23T16:08:50;98166.36;;;7.99;77.02
76753;BME280;65687;51.308;16.916;2024-02-23T16:13:52;98181.77;;;7.94;77.29
76753;BME280;65687;51.308;16.916;2024-02-23T16:18:53;98196.36;;;7.90;77.26
76753;BME280;65687;51.308;16.916;2024-02-23T16:23:55;98203.40;;;7.86;77.36
76753;BME280;65687;51.308;16.916;2024-02-23T16:28:57;98210.63;;;7.83;76.90
76753;BME280;65687;51.308;16.916;2024-02-23T16:33:59;98211.32;;;7.80;77.05
76753;BME280;65687;51.308;16.916;2024-02-23T16:39:01;98212.59;;;7.75;76.60
76753;BME280;65687;51.308;16.916;2024-02-23T16:44:05;98217.50;;;7.69;76.43
76753;BME280;65687;51.308;16.916;2024-02-23T16:49:07;98219.10;;;7.61;76.39
76753;BME280;65687;51.308;16.916;2024-02-23T16:54:09;98212.69;;;7.53;76.43
76753;BME280;65687;51.308;16.916;2024-02-23T16:59:13;98216.64;;;7.49;76.67
76753;BME280;65687;51.308;16.916;2024-02-23T17:04:17;98236.08;;;7.45;76.99
76753;BME280;65687;51.308;16.916;2024-02-23T17:09:18;98239.70;;;7.40;77.29
76753;BME280;65687;51.308;16.916;2024-02-23T17:14:20;98245.08;;;7.37;77.39
76753;BME280;65687;51.308;16.916;2024-02-23T17:19:22;98237.33;;;7.32;77.56
76753;BME280;65687;51.308;16.916;2024-02-23T17:24:24;98234.16;;;7.30;77.50
76753;BME280;65687;51.308;16.916;2024-02-23T17:29:26;98234.67;;;7.26;77.75
76753;BME280;65687;51.308;16.916;2024-02-23T17:34:28;98228.84;;;7.24;78.07
76753;BME280;65687;51.308;16.916;2024-02-23T17:39:29;98231.73;;;7.22;78.51
76753;BME280;65687;51.308;16.916;2024-02-23T17:44:31;98229.89;;;7.19;78.60
76753;BME280;65687;51.308;16.916;2024-02-23T17:49:33;98232.03;;;7.18;79.06
76753;BME280;65687;51.308;16.916;2024-02-23T17:54:34;98232.10;;;7.16;79.20
76753;BME280;65687;51.308;16.916;2024-02-23T17:59:37;98228.13;;;7.14;79.43
76753;BME280;65687;51.308;16.916;2024-02-23T18:04:39;98232.17;;;7.11;79.33
76753;BME280;65687;51.308;16.916;2024-02-23T18:09:41;98240.52;;;7.10;79.60
76753;BME280;65687;51.308;16.916;2024-02-23T18:14:43;98250.68;;;7.09;79.51
76753;BME280;65687;51.308;16.916;2024-02-23T18:19:44;98254.39;;;7.09;79.74
76753;BME280;65687;51.308;16.916;2024-02-23T18:24:47;98252.80;;;7.08;79.81
76753;BME280;65687;51.308;16.916;2024-02-23T18:29:49;98256.53;;;7.06;80.18
76753;BME280;65687;51.308;16.916;2024-02-23T18:34:51;98257.98;;;7.05;80.08
76753;BME280;65687;51.308;16.916;2024-02-23T18:39:52;98256.55;;;7.02;80.90
76753;BME280;65687;51.308;16.916;2024-02-23T18:44:55;98257.43;;;6.97;81.70
76753;BME280;65687;51.308;16.916;2024-02-23T18:49:59;98257.39;;;6.90;82.29
76753;BME280;65687;51.308;16.916;2024-02-23T18:55:01;98256.70;;;6.80;83.35
76753;BME280;65687;51.308;16.916;2024-02-23T19:00:04;98263.90;;;6.71;84.57
76753;BME280;65687;51.308;16.916;2024-02-23T19:05:08;98260.99;;;6.64;85.61
76753;BME280;65687;51.308;16.916;2024-02-23T19:10:12;98263.14;;;6.60;86.27
76753;BME280;65687;51.308;16.916;2024-02-23T19:15:14;98258.80;;;6.54;87.43
76753;BME280;65687;51.308;16.916;2024-02-23T19:20:15;98258.65;;;6.45;87.89
76753;BME280;65687;51.308;16.916;2024-02-23T19:25:17;98261.64;;;6.39;88.52
76753;BME280;65687;51.308;16.916;2024-02-23T19:30:20;98256.67;;;6.37;89.08
76753;BME280;65687;51.308;16.916;2024-02-23T19:35:21;98255.67;;;6.34;89.66
76753;BME280;65687;51.308;16.916;2024-02-23T19:40:23;98244.97;;;6.29;90.61
76753;BME280;65687;51.308;16.916;2024-02-23T19:45:26;98242.15;;;6.23;91.29
76753;BME280;65687;51.308;16.916;2024-02-23T19:50:28;98234.98;;;6.18;91.60
76753;BME280;65687;51.308;16.916;2024-02-23T19:55:29;98231.14;;;6.15;92.32
76753;BME280;65687;51.308;16.916;2024-02-23T20:00:31;98229.66;;;6.13;92.90
76753;BME280;65687;51.308;16.916;2024-02-23T20:05:33;98216.95;;;6.11;93.17
76753;BME280;65687;51.308;16.916;2024-02-23T20:10:35;98210.74;;;6.07;93.68
76753;BME280;65687;51.308;16.916;2024-02-23T20:15:37;98212.77;;;6.05;93.35
76753;BME280;65687;51.308;16.916;2024-02-23T20:20:39;98219.27;;;6.01;93.52
76753;BME280;65687;51.308;16.916;2024-02-23T20:25:41;98212.52;;;6.03;93.66
76753;BME280;65687;51.308;16.916;2024-02-23T20:30:43;98206.55;;;6.04;94.34
76753;BME280;65687;51.308;16.916;2024-02-23T20:35:45;98196.95;;;6.03;94.52
76753;BME280;65687;51.308;16.916;2024-02-23T20:40:47;98193.96;;;6.01;95.05
76753;BME280;65687;51.308;16.916;2024-02-23T20:45:49;98189.77;;;5.98;95.23
76753;BME280;65687;51.308;16.916;2024-02-23T20:50:52;98188.80;;;5.96;95.49
76753;BME280;65687;51.308;16.916;2024-02-23T20:55:54;98182.71;;;5.94;95.80
76753;BME280;65687;51.308;16.916;2024-02-23T21:00:56;98175.61;;;5.88;95.72
76753;BME280;65687;51.308;16.916;2024-02-23T21:05:57;98173.59;;;5.79;95.86
76753;BME280;65687;51.308;16.916;2024-02-23T21:10:59;98185.45;;;5.72;96.01
76753;BME280;65687;51.308;16.916;2024-02-23T21:16:01;98182.04;;;5.69;96.79
76753;BME280;65687;51.308;16.916;2024-02-23T21:21:02;98182.69;;;5.68;97.08
76753;BME280;65687;51.308;16.916;2024-02-23T21:26:04;98180.92;;;5.67;97.65
76753;BME280;65687;51.308;16.916;2024-02-23T21:31:06;98180.88;;;5.69;97.84
76753;BME280;65687;51.308;16.916;2024-02-23T21:36:08;98175.12;;;5.70;97.95
76753;BME280;65687;51.308;16.916;2024-02-23T21:41:09;98176.73;;;5.70;97.96
76753;BME280;65687;51.308;16.916;2024-02-23T21:46:11;98167.71;;;5.67;97.53
76753;BME280;65687;51.308;16.916;2024-02-23T21:51:14;98165.01;;;5.61;97.37
76753;BME280;65687;51.308;16.916;2024-02-23T21:56:16;98154.15;;;5.53;97.79
76753;BME280;65687;51.308;16.916;2024-02-23T22:01:18;98148.44;;;5.47;98.37
76753;BME280;65687;51.308;16.916;2024-02-23T22:06:20;98145.66;;;5.39;98.86
76753;BME280;65687;51.308;16.916;2024-02-23T22:11:22;98137.23;;;5.32;99.11
76753;BME280;65687;51.308;16.916;2024-02-23T22:16:24;98136.86;;;5.29;99.56
76753;BME280;65687;51.308;16.916;2024-02-23T22:21:25;98132.45;;;5.31;99.70
76753;BME280;65687;51.308;16.916;2024-02-23T22:26:27;98136.12;;;5.33;99.97
76753;BME280;65687;51.308;16.916;2024-02-23T22:31:29;98128.16;;;5.34;99.95
76753;BME280;65687;51.308;16.916;2024-02-23T22:36:30;98121.52;;;5.35;100.00
76753;BME280;65687;51.308;16.916;2024-02-23T22:41:34;98123.90;;;5.33;100.00
76753;BME280;65687;51.308;16.916;2024-02-23T22:46:37;98123.20;;;5.33;100.00
76753;BME280;65687;51.308;16.916;2024-02-23T22:51:43;98119.70;;;5.33;100.00
76753;BME280;65687;51.308;16.916;2024-02-23T22:56:45;98106.26;;;5.32;100.00
76753;BME280;65687;51.308;16.916;2024-02-23T23:01:47;98097.05;;;5.29;100.00
76753;BME280;65687;51.308;16.916;2024-02-23T23:06:49;98090.48;;;5.28;100.00
76753;BME280;65687;51.308;16.916;2024-02-23T23:11:50;98083.05;;;5.28;100.00
76753;BME280;65687;51.308;16.916;2024-02-23T23:16:52;98075.61;;;5.26;100.00
76753;BME280;65687;51.308;16.916;2024-02-23T23:21:54;98074.46;;;5.26;100.00
76753;BME280;65687;51.308;16.916;2024-02-23T23:26:55;98069.64;;;5.27;100.00
76753;BME280;65687;51.308;16.916;2024-02-23T23:31:57;98071.76;;;5.26;100.00
76753;BME280;65687;51.308;16.916;2024-02-23T23:36:59;98061.94;;;5.24;100.00
76753;BME280;65687;51.308;16.916;2024-02-23T23:42:00;98045.77;;;5.22;100.00
76753;BME280;65687;51.308;16.916;2024-02-23T23:47:02;98035.67;;;5.22;100.00
76753;BME280;65687;51.308;16.916;2024-02-23T23:52:04;98030.71;;;5.20;100.00
76753;BME280;65687;51.308;16.916;2024-02-23T23:57:06;98025.23;;;5.17;100.00
